Terminal Aerodrome Forecast
Issued by NWS Cleveland, OH

Home | Current Version | Previous Version | Text Only | Print | Product List | Glossary On
Versions: 1 2 3 4 5 6 7 8 9 10 11 12 13 14 15 16 17 18 19
000
FTUS41 KCLE 112327
TAFMFD
TAF
KMFD 112327Z 1200/1224 16008KT P6SM SCT050 BKN200
     FM120700 25009KT 4SM -SN OVC025
     FM120900 28012G20KT 2SM -SN OVC015
     FM121300 31016G26KT 6SM -SHSN OVC025=

USA.gov is the U.S. government's official web portal to all federal, state and local government web resources and services.